createdAt,value
2019-03-28T00:01:21.155Z,85.73
2019-03-28T00:03:53.346Z,85.72
2019-03-28T00:06:24.423Z,85.72
2019-03-28T00:09:10.293Z,85.77
2019-03-28T00:11:41.267Z,86.01
2019-03-28T00:14:12.472Z,86.02
2019-03-28T00:16:43.604Z,86.16
2019-03-28T00:19:14.793Z,86.16
2019-03-28T00:21:45.856Z,86.27
2019-03-28T00:24:27.733Z,86.28
2019-03-28T00:26:58.883Z,86.39
2019-03-28T00:29:30.858Z,86.17
2019-03-28T00:32:02.132Z,86.22
2019-03-28T00:34:40.467Z,86.33
2019-03-28T00:37:11.554Z,86.35
2019-03-28T00:39:42.717Z,86.21
2019-03-28T00:42:13.809Z,86.12
2019-03-28T00:44:46.033Z,86.12
2019-03-28T00:47:17.034Z,86.17
2019-03-28T00:49:49.674Z,86.18
2019-03-28T00:52:21.065Z,85.89
2019-03-28T00:54:52.098Z,85.78
2019-03-28T00:57:23.151Z,85.95
2019-03-28T00:59:54.221Z,85.96
2019-03-28T01:02:25.207Z,85.98
2019-03-28T01:04:57.529Z,85.99
2019-03-28T01:07:28.597Z,85.84
2019-03-28T01:09:59.848Z,85.73
2019-03-28T01:12:30.866Z,85.87
2019-03-28T01:15:02.052Z,85.87
2019-03-28T01:17:34.384Z,85.66
2019-03-28T01:20:06.710Z,85.59
2019-03-28T01:22:38.862Z,85.59
2019-03-28T01:25:09.904Z,85.69
2019-03-28T01:27:40.931Z,85.59
2019-03-28T01:30:11.965Z,85.68
2019-03-28T01:32:42.965Z,85.11
2019-03-28T01:35:14.100Z,84.85
2019-03-28T01:37:45.119Z,84.73
2019-03-28T01:40:16.137Z,84.77
2019-03-28T01:42:47.146Z,84.44
2019-03-28T01:45:18.213Z,83.95
2019-03-28T01:47:49.194Z,84.05
2019-03-28T01:50:20.215Z,83.89
2019-03-28T01:52:51.470Z,83.42
2019-03-28T01:55:22.584Z,83.14
2019-03-28T01:57:53.594Z,83.22
2019-03-28T02:00:25.810Z,82.76
2019-03-28T02:02:56.802Z,82.46
2019-03-28T02:05:28.858Z,82.57
2019-03-28T02:08:02.615Z,82.07
2019-03-28T02:10:32.570Z,82.44
2019-03-28T02:13:06.931Z,82.30
2019-03-28T02:15:39.034Z,82.15
2019-03-28T02:18:10.077Z,81.92
2019-03-28T02:20:41.370Z,82.05
2019-03-28T02:23:12.527Z,82.33
2019-03-28T02:25:43.710Z,82.37
2019-03-28T02:28:14.816Z,82.17
2019-03-28T02:30:45.944Z,82.28
2019-03-28T02:33:17.157Z,82.38
2019-03-28T02:35:48.350Z,82.25
2019-03-28T02:38:19.463Z,82.28
2019-03-28T02:40:51.015Z,82.04
2019-03-28T02:43:21.912Z,81.93
2019-03-28T02:45:53.339Z,82.00
2019-03-28T02:48:24.323Z,82.17
2019-03-28T02:50:55.373Z,82.18
2019-03-28T02:53:26.587Z,82.10
2019-03-28T02:55:57.754Z,81.66
2019-03-28T02:58:29.004Z,81.62
2019-03-28T03:01:00.212Z,81.90
2019-03-28T03:03:31.342Z,81.95
2019-03-28T03:06:03.512Z,81.83
2019-03-28T03:08:34.531Z,81.99
2019-03-28T03:11:05.784Z,82.12
2019-03-28T03:13:36.816Z,82.08
2019-03-28T03:16:07.947Z,81.95
2019-03-28T03:18:38.979Z,81.96
2019-03-28T03:21:10.290Z,82.03
2019-03-28T03:23:41.401Z,81.86
2019-03-28T03:26:16.355Z,82.08
2019-03-28T03:28:47.538Z,82.04
2019-03-28T03:31:21.118Z,82.05
2019-03-28T03:33:51.472Z,81.36
2019-03-28T03:36:24.347Z,81.07
2019-03-28T03:38:55.368Z,80.65
2019-03-28T03:41:26.404Z,80.91
2019-03-28T03:43:57.462Z,80.70
2019-03-28T03:46:29.325Z,80.67
2019-03-28T03:49:00.916Z,80.52
2019-03-28T03:51:32.274Z,80.16
2019-03-28T03:54:03.477Z,79.81
2019-03-28T03:56:34.930Z,79.87
2019-03-28T03:59:06.530Z,80.02
2019-03-28T04:01:38.126Z,79.40
2019-03-28T04:04:09.465Z,79.52
2019-03-28T04:06:41.722Z,79.75
2019-03-28T04:09:12.732Z,79.89
2019-03-28T04:11:44.107Z,79.25
2019-03-28T04:14:15.354Z,79.09
2019-03-28T04:16:46.947Z,78.92
2019-03-28T04:19:18.092Z,79.02
2019-03-28T04:21:49.706Z,78.80
2019-03-28T04:24:22.179Z,78.86
2019-03-28T04:26:53.428Z,78.81
2019-03-28T04:29:24.615Z,78.61
2019-03-28T04:31:55.748Z,78.71
2019-03-28T04:34:27.643Z,78.50
2019-03-28T04:36:58.899Z,78.42
2019-03-28T04:39:30.986Z,78.35
2019-03-28T04:42:02.073Z,78.53
2019-03-28T04:44:33.172Z,78.13
2019-03-28T04:47:04.353Z,77.80
2019-03-28T04:49:35.541Z,77.23
2019-03-28T04:52:07.469Z,77.31
2019-03-28T04:54:38.760Z,77.37
2019-03-28T04:57:09.982Z,77.13
2019-03-28T04:59:41.457Z,76.74
2019-03-28T05:02:12.908Z,76.51
2019-03-28T05:04:43.929Z,75.95
2019-03-28T05:07:16.374Z,75.96
2019-03-28T05:09:47.441Z,75.76
2019-03-28T05:12:18.403Z,75.42
2019-03-28T05:14:49.885Z,75.49
2019-03-28T05:17:20.815Z,75.78
2019-03-28T05:19:51.810Z,75.53
2019-03-28T05:22:22.801Z,74.66
2019-03-28T05:24:53.921Z,75.05
2019-03-28T05:27:25.245Z,74.90
2019-03-28T05:29:56.202Z,74.54
2019-03-28T05:32:28.415Z,74.65
2019-03-28T05:35:00.216Z,75.04
2019-03-28T05:37:31.582Z,75.37
2019-03-28T05:40:02.907Z,76.02
2019-03-28T05:42:35.193Z,75.97
2019-03-28T05:45:06.962Z,76.31
2019-03-28T05:47:38.223Z,77.29
2019-03-28T05:50:09.683Z,77.12
2019-03-28T05:52:40.777Z,77.77
2019-03-28T05:55:11.967Z,77.86
2019-03-28T05:57:43.633Z,77.57
2019-03-28T06:00:14.679Z,78.08
2019-03-28T06:02:45.758Z,78.20
2019-03-28T06:05:16.977Z,78.00
2019-03-28T06:07:50.221Z,78.35
2019-03-28T06:10:23.185Z,77.95
2019-03-28T06:12:54.354Z,77.70
2019-03-28T06:15:25.983Z,77.79
2019-03-28T06:17:56.954Z,77.73
2019-03-28T06:20:28.215Z,77.78
2019-03-28T06:22:59.297Z,78.29
2019-03-28T06:25:30.416Z,78.13
2019-03-28T06:28:01.488Z,77.93
2019-03-28T06:30:32.490Z,77.21
2019-03-28T06:33:03.626Z,76.61
2019-03-28T06:35:34.706Z,76.13
2019-03-28T06:38:05.994Z,75.16
2019-03-28T06:40:37.133Z,74.70
2019-03-28T06:43:08.141Z,73.63
2019-03-28T06:45:39.365Z,73.60
2019-03-28T06:48:11.229Z,72.68
2019-03-28T06:50:44.477Z,71.35
2019-03-28T06:53:17.193Z,69.86
2019-03-28T06:55:48.708Z,70.22
2019-03-28T06:58:19.956Z,69.42
2019-03-28T07:00:51.167Z,69.06
2019-03-28T07:03:22.450Z,69.05
2019-03-28T07:05:53.593Z,68.36
2019-03-28T07:08:26.018Z,68.92
2019-03-28T07:10:58.189Z,69.40
2019-03-28T07:13:29.508Z,70.59
2019-03-28T07:16:01.317Z,70.82
2019-03-28T07:18:32.735Z,70.64
2019-03-28T07:21:05.006Z,70.44
2019-03-28T07:23:37.078Z,71.34
2019-03-28T07:26:08.592Z,72.81
2019-03-28T07:28:39.680Z,71.94
2019-03-28T07:31:11.091Z,72.96
2019-03-28T07:33:42.506Z,72.71
2019-03-28T07:36:14.714Z,73.38
2019-03-28T07:38:45.963Z,74.20
2019-03-28T07:41:17.855Z,75.00
2019-03-28T07:43:49.162Z,74.79
2019-03-28T07:46:20.410Z,75.69
2019-03-28T07:48:51.772Z,76.25
2019-03-28T07:51:24.650Z,77.11
2019-03-28T07:53:55.887Z,78.36
2019-03-28T07:56:27.006Z,77.47
2019-03-28T07:58:58.332Z,76.96
2019-03-28T08:01:29.541Z,76.44
2019-03-28T08:04:00.982Z,76.39
2019-03-28T08:06:33.059Z,76.22
2019-03-28T08:09:05.973Z,75.94
2019-03-28T08:11:37.480Z,75.89
2019-03-28T08:14:10.850Z,75.47
2019-03-28T08:16:42.249Z,75.51
2019-03-28T08:19:20.836Z,74.50
2019-03-28T08:21:53.990Z,74.32
2019-03-28T08:24:29.805Z,75.26
2019-03-28T08:27:03.346Z,75.38
2019-03-28T08:29:35.923Z,74.73
2019-03-28T08:32:09.006Z,75.10
2019-03-28T08:34:40.537Z,76.53
2019-03-28T08:37:15.934Z,100.00
